sensor_id;sensor_type;location;lat;lon;timestamp;temperature;humidity
20345;DHT22;10330;48.816;9.278;2023-06-04T00:01:23;18.00;99.90
20345;DHT22;10330;48.816;9.278;2023-06-04T00:03:49;18.00;99.90
20345;DHT22;10330;48.816;9.278;2023-06-04T00:06:15;18.00;99.90
20345;DHT22;10330;48.816;9.278;2023-06-04T00:08:41;17.90;99.90
20345;DHT22;10330;48.816;9.278;2023-06-04T00:11:08;17.80;99.90
20345;DHT22;10330;48.816;9.278;2023-06-04T00:13:34;17.80;99.90
20345;DHT22;10330;48.816;9.278;2023-06-04T00:16:00;17.80;99.90
20345;DHT22;10330;48.816;9.278;2023-06-04T00:18:26;17.80;99.90
20345;DHT22;10330;48.816;9.278;2023-06-04T00:20:53;17.80;99.90
20345;DHT22;10330;48.816;9.278;2023-06-04T00:23:19;17.70;99.90
20345;DHT22;10330;48.816;9.278;2023-06-04T00:25:45;17.60;99.90
20345;DHT22;10330;48.816;9.278;2023-06-04T00:28:11;17.70;99.90
20345;DHT22;10330;48.816;9.278;2023-06-04T00:30:37;17.60;99.90
20345;DHT22;10330;48.816;9.278;2023-06-04T00:33:04;17.60;99.90
20345;DHT22;10330;48.816;9.278;2023-06-04T00:35:32;17.60;99.90
20345;DHT22;10330;48.816;9.278;2023-06-04T00:37:58;17.50;99.90
20345;DHT22;10330;48.816;9.278;2023-06-04T00:40:25;17.50;99.90
20345;DHT22;10330;48.816;9.278;2023-06-04T00:42:51;17.40;99.90
20345;DHT22;10330;48.816;9.278;2023-06-04T00:45:20;17.40;99.90
20345;DHT22;10330;48.816;9.278;2023-06-04T00:47:51;17.30;99.90
20345;DHT22;10330;48.816;9.278;2023-06-04T00:50:18;17.30;99.90
20345;DHT22;10330;48.816;9.278;2023-06-04T00:52:48;17.40;99.90
20345;DHT22;10330;48.816;9.278;2023-06-04T00:55:15;17.40;99.90
20345;DHT22;10330;48.816;9.278;2023-06-04T00:57:44;17.40;99.90
20345;DHT22;10330;48.816;9.278;2023-06-04T01:00:11;17.40;99.90
20345;DHT22;10330;48.816;9.278;2023-06-04T01:02:38;17.40;99.90
20345;DHT22;10330;48.816;9.278;2023-06-04T01:12:16;17.30;99.90
20345;DHT22;10330;48.816;9.278;2023-06-04T01:14:43;17.20;99.90
20345;DHT22;10330;48.816;9.278;2023-06-04T01:17:43;17.10;99.90
20345;DHT22;10330;48.816;9.278;2023-06-04T01:23:32;17.10;99.90
20345;DHT22;10330;48.816;9.278;2023-06-04T01:26:02;16.90;99.90
20345;DHT22;10330;48.816;9.278;2023-06-04T01:28:31;16.90;99.90
20345;DHT22;10330;48.816;9.278;2023-06-04T01:30:58;16.80;99.90
20345;DHT22;10330;48.816;9.278;2023-06-04T01:33:27;16.80;99.90
20345;DHT22;10330;48.816;9.278;2023-06-04T01:35:53;16.80;99.90
20345;DHT22;10330;48.816;9.278;2023-06-04T01:38:23;16.80;99.90
20345;DHT22;10330;48.816;9.278;2023-06-04T01:41:01;16.80;99.90
20345;DHT22;10330;48.816;9.278;2023-06-04T01:43:28;16.90;99.90
20345;DHT22;10330;48.816;9.278;2023-06-04T01:46:02;16.90;99.90
20345;DHT22;10330;48.816;9.278;2023-06-04T01:48:32;16.80;99.90
20345;DHT22;10330;48.816;9.278;2023-06-04T01:51:01;16.80;99.90
20345;DHT22;10330;48.816;9.278;2023-06-04T01:53:28;16.80;99.90
20345;DHT22;10330;48.816;9.278;2023-06-04T01:55:54;16.70;99.90
20345;DHT22;10330;48.816;9.278;2023-06-04T01:58:25;16.70;99.90
20345;DHT22;10330;48.816;9.278;2023-06-04T02:00:57;16.60;99.90
20345;DHT22;10330;48.816;9.278;2023-06-04T02:03:31;16.60;99.90
20345;DHT22;10330;48.816;9.278;2023-06-04T02:06:04;16.50;99.90
20345;DHT22;10330;48.816;9.278;2023-06-04T02:08:34;16.40;99.90
20345;DHT22;10330;48.816;9.278;2023-06-04T02:11:03;16.40;99.90
20345;DHT22;10330;48.816;9.278;2023-06-04T02:13:30;16.50;99.90
20345;DHT22;10330;48.816;9.278;2023-06-04T02:15:56;16.40;99.90
20345;DHT22;10330;48.816;9.278;2023-06-04T02:18:22;16.40;99.90
20345;DHT22;10330;48.816;9.278;2023-06-04T02:20:49;16.40;99.90
20345;DHT22;10330;48.816;9.278;2023-06-04T02:23:17;16.30;99.90
20345;DHT22;10330;48.816;9.278;2023-06-04T02:25:44;16.20;99.90
20345;DHT22;10330;48.816;9.278;2023-06-04T02:28:11;16.20;99.90
20345;DHT22;10330;48.816;9.278;2023-06-04T02:30:38;16.10;99.90
20345;DHT22;10330;48.816;9.278;2023-06-04T02:33:05;16.10;99.90
20345;DHT22;10330;48.816;9.278;2023-06-04T02:35:31;16.10;99.90
20345;DHT22;10330;48.816;9.278;2023-06-04T02:37:58;16.00;99.90
20345;DHT22;10330;48.816;9.278;2023-06-04T02:40:25;16.00;99.90
20345;DHT22;10330;48.816;9.278;2023-06-04T02:42:55;16.00;99.90
20345;DHT22;10330;48.816;9.278;2023-06-04T02:45:22;15.90;99.90
20345;DHT22;10330;48.816;9.278;2023-06-04T02:47:49;15.90;99.90
20345;DHT22;10330;48.816;9.278;2023-06-04T02:50:15;15.80;99.90
20345;DHT22;10330;48.816;9.278;2023-06-04T02:52:42;15.80;99.90
20345;DHT22;10330;48.816;9.278;2023-06-04T02:55:08;15.80;99.90
20345;DHT22;10330;48.816;9.278;2023-06-04T02:57:35;15.80;99.90
20345;DHT22;10330;48.816;9.278;2023-06-04T03:00:03;15.80;99.90
20345;DHT22;10330;48.816;9.278;2023-06-04T03:02:40;15.80;99.90
20345;DHT22;10330;48.816;9.278;2023-06-04T03:05:09;15.70;99.90
20345;DHT22;10330;48.816;9.278;2023-06-04T03:07:42;15.60;99.90
20345;DHT22;10330;48.816;9.278;2023-06-04T03:10:12;15.60;99.90
20345;DHT22;10330;48.816;9.278;2023-06-04T03:12:39;15.60;99.90
20345;DHT22;10330;48.816;9.278;2023-06-04T03:15:11;15.60;99.90
20345;DHT22;10330;48.816;9.278;2023-06-04T03:17:37;15.50;99.90
20345;DHT22;10330;48.816;9.278;2023-06-04T03:20:04;15.50;99.90
20345;DHT22;10330;48.816;9.278;2023-06-04T03:22:31;15.40;99.90
20345;DHT22;10330;48.816;9.278;2023-06-04T03:25:00;15.40;99.90
20345;DHT22;10330;48.816;9.278;2023-06-04T03:27:26;15.40;99.90
20345;DHT22;10330;48.816;9.278;2023-06-04T03:29:52;15.30;99.90
20345;DHT22;10330;48.816;9.278;2023-06-04T03:32:19;15.30;99.90
20345;DHT22;10330;48.816;9.278;2023-06-04T03:34:46;15.30;99.90
20345;DHT22;10330;48.816;9.278;2023-06-04T03:37:13;15.30;99.90
20345;DHT22;10330;48.816;9.278;2023-06-04T03:39:39;15.30;99.90
20345;DHT22;10330;48.816;9.278;2023-06-04T03:42:08;15.30;99.90
20345;DHT22;10330;48.816;9.278;2023-06-04T03:44:35;15.30;99.90
20345;DHT22;10330;48.816;9.278;2023-06-04T03:47:05;15.30;99.90
20345;DHT22;10330;48.816;9.278;2023-06-04T03:49:31;15.30;99.90
20345;DHT22;10330;48.816;9.278;2023-06-04T03:51:57;15.20;99.90
20345;DHT22;10330;48.816;9.278;2023-06-04T03:54:24;15.20;99.90
20345;DHT22;10330;48.816;9.278;2023-06-04T03:56:51;15.10;99.90
20345;DHT22;10330;48.816;9.278;2023-06-04T03:59:18;15.20;99.90
20345;DHT22;10330;48.816;9.278;2023-06-04T04:01:45;15.20;99.90
20345;DHT22;10330;48.816;9.278;2023-06-04T04:04:11;15.20;99.90
20345;DHT22;10330;48.816;9.278;2023-06-04T04:06:38;15.20;99.90
20345;DHT22;10330;48.816;9.278;2023-06-04T04:09:04;15.20;99.90
20345;DHT22;10330;48.816;9.278;2023-06-04T04:11:33;15.30;99.90
20345;DHT22;10330;48.816;9.278;2023-06-04T04:13:59;15.20;99.90
20345;DHT22;10330;48.816;9.278;2023-06-04T04:16:27;15.20;99.90
20345;DHT22;10330;48.816;9.278;2023-06-04T04:18:54;15.30;99.90
20345;DHT22;10330;48.816;9.278;2023-06-04T04:21:20;15.20;99.90
20345;DHT22;10330;48.816;9.278;2023-06-04T04:23:49;15.20;99.90
20345;DHT22;10330;48.816;9.278;2023-06-04T04:26:18;15.20;99.90
20345;DHT22;10330;48.816;9.278;2023-06-04T04:28:47;15.10;99.90
20345;DHT22;10330;48.816;9.278;2023-06-04T04:31:13;15.10;99.90
20345;DHT22;10330;48.816;9.278;2023-06-04T04:33:47;15.10;99.90
20345;DHT22;10330;48.816;9.278;2023-06-04T04:36:13;15.20;99.90
20345;DHT22;10330;48.816;9.278;2023-06-04T04:38:45;15.10;99.90
20345;DHT22;10330;48.816;9.278;2023-06-04T04:41:11;15.20;99.90
20345;DHT22;10330;48.816;9.278;2023-06-04T04:43:38;15.20;99.90
20345;DHT22;10330;48.816;9.278;2023-06-04T04:46:20;15.20;99.90
20345;DHT22;10330;48.816;9.278;2023-06-04T04:48:46;15.30;99.90
20345;DHT22;10330;48.816;9.278;2023-06-04T04:51:12;15.30;99.90
20345;DHT22;10330;48.816;9.278;2023-06-04T04:53:39;15.30;99.90
20345;DHT22;10330;48.816;9.278;2023-06-04T04:56:05;15.20;99.90
20345;DHT22;10330;48.816;9.278;2023-06-04T04:59:02;15.30;99.90
20345;DHT22;10330;48.816;9.278;2023-06-04T05:01:29;15.30;99.90
20345;DHT22;10330;48.816;9.278;2023-06-04T05:04:08;15.40;99.90
20345;DHT22;10330;48.816;9.278;2023-06-04T05:06:34;15.40;99.90
20345;DHT22;10330;48.816;9.278;2023-06-04T05:09:01;15.50;99.90
20345;DHT22;10330;48.816;9.278;2023-06-04T05:11:29;15.60;99.90
20345;DHT22;10330;48.816;9.278;2023-06-04T05:13:55;15.50;99.90
20345;DHT22;10330;48.816;9.278;2023-06-04T05:16:22;15.60;99.90
20345;DHT22;10330;48.816;9.278;2023-06-04T05:18:48;15.70;99.90
20345;DHT22;10330;48.816;9.278;2023-06-04T05:21:23;15.80;99.90
20345;DHT22;10330;48.816;9.278;2023-06-04T05:23:56;15.80;99.90
20345;DHT22;10330;48.816;9.278;2023-06-04T05:26:32;15.70;99.90
20345;DHT22;10330;48.816;9.278;2023-06-04T05:29:03;15.70;99.90
20345;DHT22;10330;48.816;9.278;2023-06-04T05:31:33;15.80;99.90
20345;DHT22;10330;48.816;9.278;2023-06-04T05:34:03;15.90;99.90
20345;DHT22;10330;48.816;9.278;2023-06-04T05:36:34;16.00;99.90
20345;DHT22;10330;48.816;9.278;2023-06-04T05:39:03;16.20;99.90
20345;DHT22;10330;48.816;9.278;2023-06-04T05:41:42;16.30;99.90
20345;DHT22;10330;48.816;9.278;2023-06-04T05:44:09;16.30;99.90
20345;DHT22;10330;48.816;9.278;2023-06-04T05:46:35;16.40;99.90
20345;DHT22;10330;48.816;9.278;2023-06-04T05:49:02;16.40;99.90
20345;DHT22;10330;48.816;9.278;2023-06-04T05:51:29;16.60;99.90
20345;DHT22;10330;48.816;9.278;2023-06-04T05:53:56;16.70;99.90
20345;DHT22;10330;48.816;9.278;2023-06-04T05:56:22;16.70;99.90
20345;DHT22;10330;48.816;9.278;2023-06-04T05:58:56;16.80;99.90
20345;DHT22;10330;48.816;9.278;2023-06-04T06:01:30;16.90;99.90
20345;DHT22;10330;48.816;9.278;2023-06-04T06:04:02;16.80;99.90
20345;DHT22;10330;48.816;9.278;2023-06-04T06:06:36;16.80;99.90
20345;DHT22;10330;48.816;9.278;2023-06-04T06:09:20;16.90;99.90
20345;DHT22;10330;48.816;9.278;2023-06-04T06:11:47;16.90;99.90
20345;DHT22;10330;48.816;9.278;2023-06-04T06:14:16;16.90;99.90
20345;DHT22;10330;48.816;9.278;2023-06-04T06:16:45;16.90;99.90
20345;DHT22;10330;48.816;9.278;2023-06-04T06:19:16;16.90;99.90
20345;DHT22;10330;48.816;9.278;2023-06-04T06:21:45;16.90;99.90
20345;DHT22;10330;48.816;9.278;2023-06-04T06:24:13;16.90;99.90
20345;DHT22;10330;48.816;9.278;2023-06-04T06:26:39;17.00;99.90
20345;DHT22;10330;48.816;9.278;2023-06-04T06:29:08;17.00;99.90
20345;DHT22;10330;48.816;9.278;2023-06-04T06:31:34;17.00;99.90
20345;DHT22;10330;48.816;9.278;2023-06-04T06:34:00;17.10;99.90
20345;DHT22;10330;48.816;9.278;2023-06-04T06:36:27;17.20;99.90
20345;DHT22;10330;48.816;9.278;2023-06-04T06:38:54;17.20;99.90
20345;DHT22;10330;48.816;9.278;2023-06-04T06:41:20;17.20;99.90
20345;DHT22;10330;48.816;9.278;2023-06-04T06:43:47;17.20;99.90
20345;DHT22;10330;48.816;9.278;2023-06-04T06:46:16;17.30;99.90
20345;DHT22;10330;48.816;9.278;2023-06-04T06:48:42;17.40;99.90
20345;DHT22;10330;48.816;9.278;2023-06-04T06:51:11;17.40;99.90
20345;DHT22;10330;48.816;9.278;2023-06-04T06:53:38;17.50;99.90
20345;DHT22;10330;48.816;9.278;2023-06-04T06:56:07;17.70;99.90
20345;DHT22;10330;48.816;9.278;2023-06-04T07:01:20;17.80;99.90
20345;DHT22;10330;48.816;9.278;2023-06-04T07:03:47;18.00;99.90
20345;DHT22;10330;48.816;9.278;2023-06-04T07:14:17;18.30;99.90
20345;DHT22;10330;48.816;9.278;2023-06-04T07:18:08;18.50;99.90
20345;DHT22;10330;48.816;9.278;2023-06-04T07:24:25;18.70;99.90
20345;DHT22;10330;48.816;9.278;2023-06-04T07:26:54;18.80;99.90
20345;DHT22;10330;48.816;9.278;2023-06-04T07:29:20;18.80;99.90
20345;DHT22;10330;48.816;9.278;2023-06-04T07:31:47;18.90;99.90
20345;DHT22;10330;48.816;9.278;2023-06-04T07:34:13;19.00;99.90
20345;DHT22;10330;48.816;9.278;2023-06-04T07:36:39;19.20;99.90
20345;DHT22;10330;48.816;9.278;2023-06-04T07:39:07;19.30;99.90
20345;DHT22;10330;48.816;9.278;2023-06-04T07:41:33;19.50;99.90
20345;DHT22;10330;48.816;9.278;2023-06-04T07:44:09;19.60;99.90
20345;DHT22;10330;48.816;9.278;2023-06-04T07:46:46;19.80;99.90
20345;DHT22;10330;48.816;9.278;2023-06-04T07:49:22;19.90;99.90
20345;DHT22;10330;48.816;9.278;2023-06-04T07:52:21;20.00;99.90
20345;DHT22;10330;48.816;9.278;2023-06-04T07:54:47;20.10;99.90
20345;DHT22;10330;48.816;9.278;2023-06-04T07:57:16;20.20;99.90
20345;DHT22;10330;48.816;9.278;2023-06-04T07:59:55;20.20;99.90
20345;DHT22;10330;48.816;9.278;2023-06-04T08:02:22;20.30;99.90
20345;DHT22;10330;48.816;9.278;2023-06-04T08:04:49;20.40;99.90
20345;DHT22;10330;48.816;9.278;2023-06-04T08:07:45;20.40;99.90
20345;DHT22;10330;48.816;9.278;2023-06-04T08:10:15;20.50;99.90
20345;DHT22;10330;48.816;9.278;2023-06-04T08:12:42;20.50;99.90
20345;DHT22;10330;48.816;9.278;2023-06-04T08:15:08;20.50;99.90
20345;DHT22;10330;48.816;9.278;2023-06-04T08:17:35;20.60;99.90
20345;DHT22;10330;48.816;9.278;2023-06-04T08:20:01;20.60;99.90
20345;DHT22;10330;48.816;9.278;2023-06-04T08:22:27;20.60;99.90
20345;DHT22;10330;48.816;9.278;2023-06-04T08:24:55;20.60;99.90
20345;DHT22;10330;48.816;9.278;2023-06-04T08:27:22;20.70;99.90
20345;DHT22;10330;48.816;9.278;2023-06-04T08:29:48;20.70;99.90
20345;DHT22;10330;48.816;9.278;2023-06-04T08:32:14;20.70;99.90
20345;DHT22;10330;48.816;9.278;2023-06-04T08:34:43;20.80;99.90
20345;DHT22;10330;48.816;9.278;2023-06-04T08:37:09;20.80;99.90
20345;DHT22;10330;48.816;9.278;2023-06-04T08:39:36;20.80;99.90
20345;DHT22;10330;48.816;9.278;2023-06-04T08:42:06;20.80;99.90
20345;DHT22;10330;48.816;9.278;2023-06-04T08:44:35;21.00;99.90
20345;DHT22;10330;48.816;9.278;2023-06-04T08:47:04;21.10;99.90
20345;DHT22;10330;48.816;9.278;2023-06-04T08:49:36;21.10;99.90
20345;DHT22;10330;48.816;9.278;2023-06-04T08:52:03;21.20;99.90
20345;DHT22;10330;48.816;9.278;2023-06-04T08:54:29;21.20;99.90
20345;DHT22;10330;48.816;9.278;2023-06-04T08:56:57;21.30;99.90
20345;DHT22;10330;48.816;9.278;2023-06-04T08:59:24;21.40;99.90
20345;DHT22;10330;48.816;9.278;2023-06-04T09:01:53;21.40;99.90
20345;DHT22;10330;48.816;9.278;2023-06-04T09:04:20;21.40;99.90
20345;DHT22;10330;48.816;9.278;2023-06-04T09:06:47;21.60;99.90
20345;DHT22;10330;48.816;9.278;2023-06-04T09:09:15;21.70;99.90
20345;DHT22;10330;48.816;9.278;2023-06-04T09:11:54;21.70;99.90
20345;DHT22;10330;48.816;9.278;2023-06-04T09:14:21;21.80;99.90
20345;DHT22;10330;48.816;9.278;2023-06-04T09:16:49;21.90;99.90
20345;DHT22;10330;48.816;9.278;2023-06-04T09:19:17;22.00;99.90
20345;DHT22;10330;48.816;9.278;2023-06-04T09:21:52;22.10;99.90
20345;DHT22;10330;48.816;9.278;2023-06-04T09:24:44;22.10;99.90
20345;DHT22;10330;48.816;9.278;2023-06-04T09:27:24;22.20;99.90
20345;DHT22;10330;48.816;9.278;2023-06-04T09:30:29;22.30;99.90
20345;DHT22;10330;48.816;9.278;2023-06-04T09:33:06;22.40;99.90
20345;DHT22;10330;48.816;9.278;2023-06-04T09:35:32;22.50;99.90
20345;DHT22;10330;48.816;9.278;2023-06-04T09:38:07;22.60;99.90
20345;DHT22;10330;48.816;9.278;2023-06-04T09:40:37;22.60;99.90
20345;DHT22;10330;48.816;9.278;2023-06-04T09:43:04;22.60;99.90
20345;DHT22;10330;48.816;9.278;2023-06-04T09:45:56;22.60;99.90
20345;DHT22;10330;48.816;9.278;2023-06-04T09:48:28;22.60;99.90
20345;DHT22;10330;48.816;9.278;2023-06-04T09:50:55;22.70;99.90
20345;DHT22;10330;48.816;9.278;2023-06-04T09:53:59;22.70;99.90
20345;DHT22;10330;48.816;9.278;2023-06-04T09:56:26;22.70;99.90
20345;DHT22;10330;48.816;9.278;2023-06-04T09:59:32;22.70;99.90
20345;DHT22;10330;48.816;9.278;2023-06-04T10:02:47;22.90;99.90
20345;DHT22;10330;48.816;9.278;2023-06-04T10:05:25;23.10;99.90
20345;DHT22;10330;48.816;9.278;2023-06-04T10:07:52;23.00;99.90
20345;DHT22;10330;48.816;9.278;2023-06-04T10:10:25;23.00;99.90
20345;DHT22;10330;48.816;9.278;2023-06-04T10:13:18;23.10;99.90
20345;DHT22;10330;48.816;9.278;2023-06-04T10:15:46;23.20;99.90
20345;DHT22;10330;48.816;9.278;2023-06-04T10:18:14;23.40;99.90
20345;DHT22;10330;48.816;9.278;2023-06-04T10:20:41;23.40;99.90
20345;DHT22;10330;48.816;9.278;2023-06-04T10:23:08;23.50;99.90
20345;DHT22;10330;48.816;9.278;2023-06-04T10:25:35;23.50;99.90
20345;DHT22;10330;48.816;9.278;2023-06-04T10:28:02;23.60;99.90
20345;DHT22;10330;48.816;9.278;2023-06-04T10:30:30;23.70;99.90
20345;DHT22;10330;48.816;9.278;2023-06-04T10:32:59;23.70;99.90
20345;DHT22;10330;48.816;9.278;2023-06-04T10:35:30;23.80;99.90
20345;DHT22;10330;48.816;9.278;2023-06-04T10:38:13;23.90;99.90
20345;DHT22;10330;48.816;9.278;2023-06-04T10:40:40;24.00;99.90
20345;DHT22;10330;48.816;9.278;2023-06-04T10:43:11;24.10;99.50
20345;DHT22;10330;48.816;9.278;2023-06-04T10:45:38;24.10;99.90
20345;DHT22;10330;48.816;9.278;2023-06-04T10:48:13;24.20;99.20
20345;DHT22;10330;48.816;9.278;2023-06-04T10:50:53;24.30;99.40
20345;DHT22;10330;48.816;9.278;2023-06-04T10:53:19;24.50;99.90
20345;DHT22;10330;48.816;9.278;2023-06-04T10:55:47;24.60;99.10
20345;DHT22;10330;48.816;9.278;2023-06-04T10:58:13;24.70;99.80
20345;DHT22;10330;48.816;9.278;2023-06-04T11:00:42;24.90;99.00
20345;DHT22;10330;48.816;9.278;2023-06-04T11:03:12;24.90;97.70
20345;DHT22;10330;48.816;9.278;2023-06-04T11:05:41;25.00;99.00
20345;DHT22;10330;48.816;9.278;2023-06-04T11:08:08;25.00;97.70
20345;DHT22;10330;48.816;9.278;2023-06-04T11:10:41;25.10;97.90
20345;DHT22;10330;48.816;9.278;2023-06-04T11:13:08;25.10;97.50
20345;DHT22;10330;48.816;9.278;2023-06-04T11:15:40;25.10;95.50
20345;DHT22;10330;48.816;9.278;2023-06-04T11:18:07;25.30;95.70
20345;DHT22;10330;48.816;9.278;2023-06-04T11:20:33;25.40;96.80
20345;DHT22;10330;48.816;9.278;2023-06-04T11:23:00;25.50;96.50
20345;DHT22;10330;48.816;9.278;2023-06-04T11:25:32;25.50;96.40
20345;DHT22;10330;48.816;9.278;2023-06-04T11:28:06;25.70;95.40
20345;DHT22;10330;48.816;9.278;2023-06-04T11:30:33;25.90;96.00
20345;DHT22;10330;48.816;9.278;2023-06-04T11:33:03;26.20;98.40
20345;DHT22;10330;48.816;9.278;2023-06-04T11:35:32;26.40;94.30
20345;DHT22;10330;48.816;9.278;2023-06-04T11:38:06;26.60;95.30
20345;DHT22;10330;48.816;9.278;2023-06-04T11:40:32;26.70;93.60
20345;DHT22;10330;48.816;9.278;2023-06-04T11:42:58;26.80;94.60
20345;DHT22;10330;48.816;9.278;2023-06-04T11:45:27;27.10;94.80
20345;DHT22;10330;48.816;9.278;2023-06-04T11:47:58;27.30;95.50
20345;DHT22;10330;48.816;9.278;2023-06-04T11:50:31;27.40;92.10
20345;DHT22;10330;48.816;9.278;2023-06-04T11:52:59;27.50;95.00
20345;DHT22;10330;48.816;9.278;2023-06-04T11:55:26;27.60;91.80
20345;DHT22;10330;48.816;9.278;2023-06-04T11:57:53;27.80;94.40
20345;DHT22;10330;48.816;9.278;2023-06-04T12:00:20;28.00;94.20
20345;DHT22;10330;48.816;9.278;2023-06-04T12:02:52;28.10;91.80
20345;DHT22;10330;48.816;9.278;2023-06-04T12:05:20;28.30;91.90
20345;DHT22;10330;48.816;9.278;2023-06-04T12:07:47;28.40;92.00
20345;DHT22;10330;48.816;9.278;2023-06-04T12:10:20;28.60;90.80
20345;DHT22;10330;48.816;9.278;2023-06-04T12:12:53;29.00;89.60
20345;DHT22;10330;48.816;9.278;2023-06-04T12:15:20;29.40;92.10
20345;DHT22;10330;48.816;9.278;2023-06-04T12:17:53;29.90;89.70
20345;DHT22;10330;48.816;9.278;2023-06-04T12:20:36;30.40;87.60
20345;DHT22;10330;48.816;9.278;2023-06-04T12:23:05;30.90;84.40
20345;DHT22;10330;48.816;9.278;2023-06-04T12:25:33;31.20;80.10
20345;DHT22;10330;48.816;9.278;2023-06-04T12:28:17;31.60;83.80
20345;DHT22;10330;48.816;9.278;2023-06-04T12:30:47;31.90;75.20
20345;DHT22;10330;48.816;9.278;2023-06-04T12:33:15;32.10;76.00
20345;DHT22;10330;48.816;9.278;2023-06-04T12:35:42;32.10;74.60
20345;DHT22;10330;48.816;9.278;2023-06-04T12:38:11;32.40;72.20
20345;DHT22;10330;48.816;9.278;2023-06-04T12:40:39;32.50;72.20
20345;DHT22;10330;48.816;9.278;2023-06-04T12:43:06;32.60;68.50
20345;DHT22;10330;48.816;9.278;2023-06-04T12:45:35;32.80;71.40
20345;DHT22;10330;48.816;9.278;2023-06-04T12:48:03;32.90;69.00
20345;DHT22;10330;48.816;9.278;2023-06-04T12:50:57;33.20;70.10
20345;DHT22;10330;48.816;9.278;2023-06-04T12:54:24;33.50;69.80
20345;DHT22;10330;48.816;9.278;2023-06-04T12:56:50;33.30;64.70
20345;DHT22;10330;48.816;9.278;2023-06-04T12:59:16;33.10;62.60
20345;DHT22;10330;48.816;9.278;2023-06-04T13:01:43;33.20;70.30
20345;DHT22;10330;48.816;9.278;2023-06-04T13:04:09;33.20;65.70
20345;DHT22;10330;48.816;9.278;2023-06-04T13:06:36;33.20;66.10
20345;DHT22;10330;48.816;9.278;2023-06-04T13:09:06;33.30;65.50
20345;DHT22;10330;48.816;9.278;2023-06-04T13:12:20;33.50;63.30
20345;DHT22;10330;48.816;9.278;2023-06-04T13:14:52;33.30;63.00
20345;DHT22;10330;48.816;9.278;2023-06-04T13:17:24;33.50;62.80
20345;DHT22;10330;48.816;9.278;2023-06-04T13:19:52;33.40;61.00
20345;DHT22;10330;48.816;9.278;2023-06-04T13:22:18;33.50;63.40
20345;DHT22;10330;48.816;9.278;2023-06-04T13:24:45;33.20;58.50
20345;DHT22;10330;48.816;9.278;2023-06-04T13:27:19;33.40;60.00
20345;DHT22;10330;48.816;9.278;2023-06-04T13:29:45;33.60;57.50
20345;DHT22;10330;48.816;9.278;2023-06-04T13:32:11;33.50;59.20
20345;DHT22;10330;48.816;9.278;2023-06-04T13:34:38;33.60;59.80
20345;DHT22;10330;48.816;9.278;2023-06-04T13:37:04;33.80;61.00
20345;DHT22;10330;48.816;9.278;2023-06-04T13:39:33;34.00;58.00
20345;DHT22;10330;48.816;9.278;2023-06-04T13:42:27;34.10;56.40
20345;DHT22;10330;48.816;9.278;2023-06-04T13:45:24;34.10;55.80
20345;DHT22;10330;48.816;9.278;2023-06-04T13:48:28;34.00;53.70
20345;DHT22;10330;48.816;9.278;2023-06-04T13:50:57;34.30;59.90
20345;DHT22;10330;48.816;9.278;2023-06-04T13:53:43;34.20;55.60
20345;DHT22;10330;48.816;9.278;2023-06-04T13:56:10;34.70;57.90
20345;DHT22;10330;48.816;9.278;2023-06-04T13:58:36;35.00;58.00
20345;DHT22;10330;48.816;9.278;2023-06-04T14:01:02;35.10;58.20
20345;DHT22;10330;48.816;9.278;2023-06-04T14:03:28;35.20;55.90
20345;DHT22;10330;48.816;9.278;2023-06-04T14:06:00;35.30;56.30
20345;DHT22;10330;48.816;9.278;2023-06-04T14:08:27;35.40;53.80
20345;DHT22;10330;48.816;9.278;2023-06-04T14:10:54;35.20;56.10
20345;DHT22;10330;48.816;9.278;2023-06-04T14:13:22;35.50;54.40
20345;DHT22;10330;48.816;9.278;2023-06-04T14:16:06;35.70;55.10
20345;DHT22;10330;48.816;9.278;2023-06-04T14:18:37;35.80;54.60
20345;DHT22;10330;48.816;9.278;2023-06-04T14:21:33;35.90;54.50
20345;DHT22;10330;48.816;9.278;2023-06-04T14:24:35;36.10;54.80
20345;DHT22;10330;48.816;9.278;2023-06-04T14:27:50;36.60;54.20
20345;DHT22;10330;48.816;9.278;2023-06-04T14:31:03;36.70;50.90
20345;DHT22;10330;48.816;9.278;2023-06-04T14:34:08;36.70;52.50
20345;DHT22;10330;48.816;9.278;2023-06-04T14:36:42;36.80;51.30
20345;DHT22;10330;48.816;9.278;2023-06-04T14:39:10;37.00;51.30
20345;DHT22;10330;48.816;9.278;2023-06-04T14:41:47;37.30;51.20
20345;DHT22;10330;48.816;9.278;2023-06-04T14:44:20;37.50;47.80
20345;DHT22;10330;48.816;9.278;2023-06-04T14:46:49;37.20;47.80
20345;DHT22;10330;48.816;9.278;2023-06-04T14:49:17;37.40;50.20
20345;DHT22;10330;48.816;9.278;2023-06-04T14:51:44;37.30;49.40
20345;DHT22;10330;48.816;9.278;2023-06-04T14:54:11;37.10;49.20
20345;DHT22;10330;48.816;9.278;2023-06-04T14:56:37;37.10;49.50
20345;DHT22;10330;48.816;9.278;2023-06-04T14:59:04;37.10;50.20
20345;DHT22;10330;48.816;9.278;2023-06-04T15:01:38;37.00;49.50
20345;DHT22;10330;48.816;9.278;2023-06-04T15:04:08;36.80;48.00
20345;DHT22;10330;48.816;9.278;2023-06-04T15:06:35;36.70;49.30
20345;DHT22;10330;48.816;9.278;2023-06-04T15:09:02;36.80;50.30
20345;DHT22;10330;48.816;9.278;2023-06-04T15:11:29;37.10;50.90
20345;DHT22;10330;48.816;9.278;2023-06-04T15:13:59;36.90;48.00
20345;DHT22;10330;48.816;9.278;2023-06-04T15:16:25;37.00;47.90
20345;DHT22;10330;48.816;9.278;2023-06-04T15:18:51;37.10;47.80
20345;DHT22;10330;48.816;9.278;2023-06-04T15:21:17;37.20;48.20
20345;DHT22;10330;48.816;9.278;2023-06-04T15:23:46;37.30;48.30
20345;DHT22;10330;48.816;9.278;2023-06-04T15:26:17;37.40;45.90
20345;DHT22;10330;48.816;9.278;2023-06-04T15:28:44;37.20;46.50
20345;DHT22;10330;48.816;9.278;2023-06-04T15:31:10;37.40;47.90
20345;DHT22;10330;48.816;9.278;2023-06-04T15:33:43;37.00;45.60
20345;DHT22;10330;48.816;9.278;2023-06-04T15:36:09;37.30;49.00
20345;DHT22;10330;48.816;9.278;2023-06-04T15:38:36;37.50;47.50
20345;DHT22;10330;48.816;9.278;2023-06-04T15:41:02;37.30;44.80
20345;DHT22;10330;48.816;9.278;2023-06-04T15:43:28;37.40;47.50
20345;DHT22;10330;48.816;9.278;2023-06-04T15:45:56;37.30;47.10
20345;DHT22;10330;48.816;9.278;2023-06-04T15:48:26;37.30;47.10
20345;DHT22;10330;48.816;9.278;2023-06-04T15:50:54;37.40;45.70
20345;DHT22;10330;48.816;9.278;2023-06-04T15:53:25;37.60;47.30
20345;DHT22;10330;48.816;9.278;2023-06-04T15:55:52;37.60;46.90
20345;DHT22;10330;48.816;9.278;2023-06-04T15:58:18;37.70;46.40
20345;DHT22;10330;48.816;9.278;2023-06-04T16:00:45;37.70;47.00
20345;DHT22;10330;48.816;9.278;2023-06-04T16:03:11;37.70;47.00
20345;DHT22;10330;48.816;9.278;2023-06-04T16:05:37;37.70;46.60
20345;DHT22;10330;48.816;9.278;2023-06-04T16:08:09;37.70;47.00
20345;DHT22;10330;48.816;9.278;2023-06-04T16:10:38;37.70;45.70
20345;DHT22;10330;48.816;9.278;2023-06-04T16:13:04;37.90;46.00
20345;DHT22;10330;48.816;9.278;2023-06-04T16:15:30;37.50;46.40
20345;DHT22;10330;48.816;9.278;2023-06-04T16:17:56;36.60;46.60